Time;durP1;ratioP1;P1;durP2;ratioP2;P2;SDS_P1;SDS_P2;PMS_P1;PMS_P2;Temp;Humidity;BMP_temperature;BMP_pressure;BME280_temperature;BME280_humidity;BME280_pressure;Samples;Min_cycle;Max_cycle;Signal;HPM_P1;HPM_P2
2023/12/21 00:01:16;;;;;;;6.20;3.77;;;;;;;;;;5014058;28;20002;-80
2023/12/21 00:03:42;;;;;;;11.97;3.07;;;;;;;;;;5025368;28;20034;-80
2023/12/21 00:06:11;;;;;;;5.53;2.73;;;;;;;;;;5016743;28;20018;-79
2023/12/21 00:08:44;;;;;;;5.97;3.60;;;;;;;;;;5027921;28;20018;-79
2023/12/21 00:11:15;;;;;;;6.13;2.90;;;;;;;;;;5008736;28;20026;-80
2023/12/21 00:13:44;;;;;;;6.87;3.00;;;;;;;;;;5016288;28;20035;-80
2023/12/21 00:16:14;;;;;;;5.50;2.80;;;;;;;;;;5017161;28;20011;-79
2023/12/21 00:18:45;;;;;;;7.63;2.50;;;;;;;;;;5020579;28;20027;-80
2023/12/21 00:21:11;;;;;;;4.57;2.70;;;;;;;;;;5010327;28;20034;-80
2023/12/21 00:23:37;;;;;;;6.50;2.67;;;;;;;;;;5011051;28;20031;-79
2023/12/21 00:26:06;;;;;;;7.70;3.50;;;;;;;;;;5011186;28;20058;-79
2023/12/21 00:28:37;;;;;;;4.93;2.50;;;;;;;;;;5006085;28;20054;-80
2023/12/21 00:31:32;;;;;;;4.23;2.47;;;;;;;;;;5007879;28;20031;-79
2023/12/21 00:34:00;;;;;;;3.67;1.97;;;;;;;;;;5007383;28;20057;-79
2023/12/21 00:36:29;;;;;;;5.80;2.63;;;;;;;;;;5011036;28;20099;-80
2023/12/21 00:39:00;;;;;;;3.27;2.40;;;;;;;;;;5012433;28;20033;-80
2023/12/21 00:41:26;;;;;;;4.20;1.90;;;;;;;;;;5006947;28;20077;-79
2023/12/21 00:43:54;;;;;;;4.00;2.57;;;;;;;;;;5008076;28;20034;-79
2023/12/21 00:46:20;;;;;;;5.17;2.63;;;;;;;;;;5012526;28;20034;-80
2023/12/21 00:48:49;;;;;;;7.03;2.80;;;;;;;;;;5017055;28;20015;-79
2023/12/21 00:51:19;;;;;;;5.77;2.77;;;;;;;;;;5012572;28;20084;-80
2023/12/21 00:53:47;;;;;;;3.47;2.70;;;;;;;;;;5013931;28;20045;-79
2023/12/21 00:56:14;;;;;;;6.33;3.07;;;;;;;;;;5013995;28;20025;-79
2023/12/21 00:58:42;;;;;;;7.90;3.70;;;;;;;;;;5020953;28;20070;-79
2023/12/21 01:01:08;;;;;;;5.00;3.20;;;;;;;;;;5013309;28;20022;-79
2023/12/21 01:03:34;;;;;;;6.33;3.63;;;;;;;;;;5017998;28;20014;-81
2023/12/21 01:06:00;;;;;;;5.43;3.40;;;;;;;;;;5009979;28;20022;-80
2023/12/21 01:08:26;;;;;;;8.83;3.73;;;;;;;;;;5017620;28;20161;-80
2023/12/21 01:10:52;;;;;;;6.50;4.23;;;;;;;;;;5012319;28;20041;-79
2023/12/21 01:13:24;;;;;;;9.10;4.33;;;;;;;;;;5011501;28;20031;-80
2023/12/21 01:15:55;;;;;;;7.15;4.38;;;;;;;;;;5017184;28;20019;-80
2023/12/21 01:18:25;;;;;;;8.20;4.00;;;;;;;;;;5016799;28;20049;-79
2023/12/21 01:20:54;;;;;;;9.70;5.23;;;;;;;;;;5022480;28;20115;-80
2023/12/21 01:23:33;;;;;;;;;;;;;;;;;;;;;
2023/12/21 01:26:04;;;;;;;8.23;5.07;;;;;;;;;;5020262;28;20062;-79
2023/12/21 01:28:32;;;;;;;11.67;5.87;;;;;;;;;;5020011;28;20034;-80
2023/12/21 01:31:00;;;;;;;8.33;5.53;;;;;;;;;;5016035;28;20041;-79
2023/12/21 01:33:29;;;;;;;7.40;4.87;;;;;;;;;;5017497;28;20070;-79
2023/12/21 01:35:55;;;;;;;9.83;5.40;;;;;;;;;;5019408;28;20191;-80
2023/12/21 01:38:32;;;;;;;9.47;5.50;;;;;;;;;;5020255;28;20025;-79
2023/12/21 01:41:02;;;;;;;8.13;5.53;;;;;;;;;;5018098;28;20051;-79
2023/12/21 01:43:34;;;;;;;10.87;6.70;;;;;;;;;;5020220;28;20045;-79
2023/12/21 01:46:03;;;;;;;8.75;5.22;;;;;;;;;;5019468;28;20045;-79
2023/12/21 01:48:37;;;;;;;8.13;6.07;;;;;;;;;;5017128;28;20085;-80
2023/12/21 01:51:06;;;;;;;11.53;5.60;;;;;;;;;;5016674;28;20031;-80
2023/12/21 01:53:33;;;;;;;11.67;4.50;;;;;;;;;;5014086;28;20035;-79
2023/12/21 01:56:03;;;;;;;13.43;4.77;;;;;;;;;;5022371;28;20018;-79
2023/12/21 01:58:30;;;;;;;8.57;4.83;;;;;;;;;;5020131;28;20018;-80
2023/12/21 02:00:58;;;;;;;7.97;4.00;;;;;;;;;;5017868;28;20081;-80
2023/12/21 02:03:27;;;;;;;6.30;3.63;;;;;;;;;;5016783;28;20046;-80
2023/12/21 02:05:55;;;;;;;6.80;3.50;;;;;;;;;;5015621;28;20018;-80
2023/12/21 02:08:21;;;;;;;5.33;3.80;;;;;;;;;;5021704;28;20022;-79
2023/12/21 02:10:50;;;;;;;6.20;3.17;;;;;;;;;;5018495;28;20139;-80
2023/12/21 02:13:16;;;;;;;7.47;3.03;;;;;;;;;;5020895;28;20046;-79
2023/12/21 02:15:48;;;;;;;4.30;2.73;;;;;;;;;;5174698;23;20030;-80
2023/12/21 02:18:14;;;;;;;5.32;2.83;;;;;;;;;;5038568;28;20013;-80
2023/12/21 02:20:46;;;;;;;5.63;2.80;;;;;;;;;;5033849;28;20029;-80
2023/12/21 02:23:17;;;;;;;6.78;3.30;;;;;;;;;;5037518;28;20053;-81
2023/12/21 02:25:45;;;;;;;4.87;3.07;;;;;;;;;;5037681;28;20030;-79
2023/12/21 02:28:14;;;;;;;5.93;3.20;;;;;;;;;;5036442;28;20029;-79
2023/12/21 02:30:57;;;;;;;4.80;2.93;;;;;;;;;;5038319;28;20033;-79
2023/12/21 02:33:41;;;;;;;5.63;2.63;;;;;;;;;;5038373;28;20044;-80
2023/12/21 02:36:07;;;;;;;6.83;2.70;;;;;;;;;;5044191;28;20031;-79
2023/12/21 02:38:37;;;;;;;6.23;3.57;;;;;;;;;;5033644;28;20022;-80
2023/12/21 02:41:12;;;;;;;4.43;3.00;;;;;;;;;;5039280;28;20068;-80
2023/12/21 02:46:10;;;;;;;5.65;3.03;;;;;;;;;;5011964;28;20049;-79
2023/12/21 02:48:38;;;;;;;7.50;2.97;;;;;;;;;;5011716;28;20022;-80
2023/12/21 02:51:05;;;;;;;9.10;3.93;;;;;;;;;;5013103;28;20027;-79
2023/12/21 02:53:31;;;;;;;8.93;3.40;;;;;;;;;;5010891;28;20049;-79
2023/12/21 02:55:57;;;;;;;5.80;3.80;;;;;;;;;;5028225;28;20026;-79
2023/12/21 02:58:25;;;;;;;12.27;4.60;;;;;;;;;;5015713;28;20030;-79
2023/12/21 03:00:51;;;;;;;8.67;5.03;;;;;;;;;;5013031;28;20030;-79
2023/12/21 03:03:19;;;;;;;8.07;3.63;;;;;;;;;;5013593;28;20050;-79
2023/12/21 03:05:48;;;;;;;6.43;3.23;;;;;;;;;;5024718;28;20034;-79
2023/12/21 03:08:14;;;;;;;8.80;3.83;;;;;;;;;;5026520;28;20098;-81
2023/12/21 03:10:40;;;;;;;8.47;4.03;;;;;;;;;;5011338;28;20018;-79
2023/12/21 03:13:06;;;;;;;8.93;4.33;;;;;;;;;;5028311;28;20089;-80
2023/12/21 03:15:32;;;;;;;10.40;4.23;;;;;;;;;;5030065;28;20027;-80
2023/12/21 03:17:58;;;;;;;11.07;3.87;;;;;;;;;;5023275;28;20054;-80
2023/12/21 03:20:27;;;;;;;11.17;3.87;;;;;;;;;;5027035;28;20041;-80
2023/12/21 03:22:53;;;;;;;7.13;3.63;;;;;;;;;;5029271;28;20030;-80
2023/12/21 03:25:19;;;;;;;7.23;3.03;;;;;;;;;;5027184;28;20018;-80
2023/12/21 03:27:47;;;;;;;10.30;3.57;;;;;;;;;;5011208;28;20030;-80
2023/12/21 03:30:13;;;;;;;8.07;3.13;;;;;;;;;;5025270;28;20049;-80
2023/12/21 03:32:39;;;;;;;6.67;3.10;;;;;;;;;;5020893;28;20054;-80
2023/12/21 03:35:08;;;;;;;10.43;2.70;;;;;;;;;;5025800;28;20010;-80
2023/12/21 03:37:42;;;;;;;8.80;3.63;;;;;;;;;;5023655;28;20014;-80
2023/12/21 03:40:11;;;;;;;13.23;3.30;;;;;;;;;;5020964;28;20041;-80
2023/12/21 03:42:45;;;;;;;9.03;3.30;;;;;;;;;;5022635;28;20022;-79
2023/12/21 03:45:11;;;;;;;6.33;2.87;;;;;;;;;;5167225;22;20109;-79
2023/12/21 03:47:40;;;;;;;10.27;3.10;;;;;;;;;;5048775;28;20114;-80
2023/12/21 03:50:08;;;;;;;8.47;3.10;;;;;;;;;;5033629;28;20025;-79
2023/12/21 03:52:34;;;;;;;5.00;2.53;;;;;;;;;;5035685;28;20053;-80
2023/12/21 03:55:03;;;;;;;4.97;2.53;;;;;;;;;;5049080;28;20033;-80
2023/12/21 03:57:32;;;;;;;9.33;3.27;;;;;;;;;;5032555;28;20041;-79
2023/12/21 04:00:10;;;;;;;9.03;2.53;;;;;;;;;;5048907;28;20145;-79
2023/12/21 04:02:36;;;;;;;6.47;2.50;;;;;;;;;;5064465;28;20026;-81
2023/12/21 04:05:05;;;;;;;6.03;2.67;;;;;;;;;;5048376;28;20037;-80
2023/12/21 04:07:36;;;;;;;9.00;2.40;;;;;;;;;;5031391;28;20026;-80
2023/12/21 04:10:02;;;;;;;6.20;2.87;;;;;;;;;;5030665;28;20033;-80
2023/12/21 04:12:29;;;;;;;5.63;2.20;;;;;;;;;;5031888;28;20050;-79
2023/12/21 04:14:57;;;;;;;9.03;2.27;;;;;;;;;;5113215;22;20046;-80
2023/12/21 04:17:23;;;;;;;7.47;1.83;;;;;;;;;;5067705;28;20021;-79
2023/12/21 04:19:49;;;;;;;5.10;2.43;;;;;;;;;;5067856;28;20025;-80
2023/12/21 04:22:24;;;;;;;6.83;2.00;;;;;;;;;;5067474;28;20034;-79
2023/12/21 04:24:50;;;;;;;4.00;1.87;;;;;;;;;;5067008;28;20015;-81
2023/12/21 04:27:18;;;;;;;6.60;2.13;;;;;;;;;;5067922;28;20028;-80
2023/12/21 04:29:44;;;;;;;4.10;1.90;;;;;;;;;;5067865;28;20014;-80
2023/12/21 04:32:10;;;;;;;5.63;2.07;;;;;;;;;;5068097;28;20018;-80
2023/12/21 04:34:36;;;;;;;7.67;2.47;;;;;;;;;;5036910;28;20025;-80
2023/12/21 04:37:02;;;;;;;7.50;2.00;;;;;;;;;;5070238;28;20020;-80
2023/12/21 04:39:30;;;;;;;7.70;2.60;;;;;;;;;;5069419;28;20025;-80
2023/12/21 04:41:56;;;;;;;4.07;2.10;;;;;;;;;;5068438;28;20014;-80
2023/12/21 04:44:25;;;;;;;7.10;2.43;;;;;;;;;;5113845;22;20046;-80
2023/12/21 04:46:53;;;;;;;13.13;3.17;;;;;;;;;;5057048;28;20069;-79
2023/12/21 04:49:22;;;;;;;8.03;2.57;;;;;;;;;;5056794;28;20014;-80
2023/12/21 04:51:48;;;;;;;7.40;2.27;;;;;;;;;;5056803;28;20010;-79
2023/12/21 04:54:21;;;;;;;7.00;2.23;;;;;;;;;;5058041;28;20044;-81
2023/12/21 04:56:47;;;;;;;5.73;2.33;;;;;;;;;;5061141;28;20009;-80
2023/12/21 04:59:13;;;;;;;8.40;2.03;;;;;;;;;;5060784;28;20060;-78
2023/12/21 05:01:40;;;;;;;7.53;2.43;;;;;;;;;;5059687;28;20010;-79
2023/12/21 05:04:07;;;;;;;7.70;2.90;;;;;;;;;;5050615;28;20097;-80
2023/12/21 05:06:33;;;;;;;5.07;2.57;;;;;;;;;;5060706;28;20018;-79
2023/12/21 05:09:02;;;;;;;5.50;2.53;;;;;;;;;;5054834;28;20029;-81
2023/12/21 05:11:30;;;;;;;6.33;2.50;;;;;;;;;;5064214;28;20006;-80
2023/12/21 05:13:57;;;;;;;8.57;2.43;;;;;;;;;;5059088;28;20025;-80
2023/12/21 05:16:23;;;;;;;7.73;2.20;;;;;;;;;;5054274;28;20044;-80
2023/12/21 05:18:50;;;;;;;8.50;2.63;;;;;;;;;;5060090;28;20029;-80
2023/12/21 05:21:18;;;;;;;9.50;3.50;;;;;;;;;;5060136;28;20009;-80
2023/12/21 05:23:44;;;;;;;6.30;2.53;;;;;;;;;;5060421;28;20017;-79
2023/12/21 05:26:14;;;;;;;12.57;2.87;;;;;;;;;;5093757;28;20014;-80
2023/12/21 05:28:42;;;;;;;4.70;2.33;;;;;;;;;;5060090;28;20010;-81
2023/12/21 05:31:12;;;;;;;4.20;2.20;;;;;;;;;;5050009;28;20006;-80
2023/12/21 05:33:39;;;;;;;4.43;1.93;;;;;;;;;;5060053;28;20025;-79
2023/12/21 05:36:05;;;;;;;3.80;2.10;;;;;;;;;;5065110;28;20005;-80
2023/12/21 05:38:34;;;;;;;5.60;2.40;;;;;;;;;;5055187;28;20010;-79
2023/12/21 05:41:00;;;;;;;3.83;1.90;;;;;;;;;;5070150;28;20025;-80
2023/12/21 05:43:26;;;;;;;3.53;2.47;;;;;;;;;;5060355;28;20002;-80
2023/12/21 05:45:56;;;;;;;9.13;3.10;;;;;;;;;;5057099;28;20030;-80
2023/12/21 05:48:22;;;;;;;9.03;2.63;;;;;;;;;;5060000;28;20016;-80
2023/12/21 05:50:48;;;;;;;8.47;2.93;;;;;;;;;;5059828;28;20006;-80
2023/12/21 05:53:17;;;;;;;9.10;2.83;;;;;;;;;;5059396;28;20059;-80
2023/12/21 05:55:45;;;;;;;8.60;3.23;;;;;;;;;;5058286;28;20021;-80
2023/12/21 05:58:14;;;;;;;7.83;3.43;;;;;;;;;;5057421;28;20081;-79
2023/12/21 06:00:42;;;;;;;13.63;3.77;;;;;;;;;;5051821;28;20157;-80
2023/12/21 06:03:08;;;;;;;17.23;3.60;;;;;;;;;;5053392;28;20017;-79
2023/12/21 06:05:36;;;;;;;10.63;3.37;;;;;;;;;;5058458;28;20033;-80
2023/12/21 06:08:05;;;;;;;16.27;4.63;;;;;;;;;;5048080;28;20022;-80
2023/12/21 06:10:31;;;;;;;13.33;3.47;;;;;;;;;;5051110;28;20001;-80
2023/12/21 06:13:03;;;;;;;10.33;3.73;;;;;;;;;;5050201;28;20053;-79
2023/12/21 06:15:29;;;;;;;11.40;3.90;;;;;;;;;;5075922;28;20030;-80
2023/12/21 06:17:55;;;;;;;17.77;3.90;;;;;;;;;;5044291;28;20030;-79
2023/12/21 06:20:23;;;;;;;17.37;5.00;;;;;;;;;;5063018;28;20018;-79
2023/12/21 06:22:49;;;;;;;13.43;4.47;;;;;;;;;;5050866;28;20113;-80
2023/12/21 06:25:18;;;;;;;10.03;4.00;;;;;;;;;;5050494;28;20014;-80
2023/12/21 06:27:44;;;;;;;16.73;4.50;;;;;;;;;;5052239;28;20064;-79
2023/12/21 06:30:13;;;;;;;10.27;4.30;;;;;;;;;;5068442;28;20037;-81
2023/12/21 06:32:41;;;;;;;16.30;5.07;;;;;;;;;;5068865;28;20041;-81
2023/12/21 06:35:10;;;;;;;12.07;3.63;;;;;;;;;;5061927;28;20010;-82
2023/12/21 06:37:36;;;;;;;13.50;3.80;;;;;;;;;;5051918;28;20033;-80
2023/12/21 06:40:04;;;;;;;12.13;4.00;;;;;;;;;;5049584;28;20104;-79
2023/12/21 06:42:34;;;;;;;11.33;3.60;;;;;;;;;;5052196;28;20048;-79
2023/12/21 06:45:03;;;;;;;11.70;3.10;;;;;;;;;;5053991;28;20048;-80
2023/12/21 06:47:29;;;;;;;14.93;3.80;;;;;;;;;;5071222;28;20013;-80
2023/12/21 06:49:58;;;;;;;10.37;2.77;;;;;;;;;;5053897;28;20025;-78
2023/12/21 06:52:30;;;;;;;13.30;3.10;;;;;;;;;;5054201;28;20032;-79
2023/12/21 06:54:58;;;;;;;14.32;3.40;;;;;;;;;;5054152;28;20045;-80
2023/12/21 06:57:24;;;;;;;10.43;3.17;;;;;;;;;;5052564;28;20037;-80
2023/12/21 06:59:50;;;;;;;13.03;3.60;;;;;;;;;;5070513;28;20025;-82
2023/12/21 07:02:19;;;;;;;14.60;4.70;;;;;;;;;;5049968;28;20010;-80
2023/12/21 07:04:45;;;;;;;8.90;3.63;;;;;;;;;;5060574;28;20018;-80
2023/12/21 07:07:11;;;;;;;9.53;3.20;;;;;;;;;;5054405;28;20052;-81
2023/12/21 07:09:37;;;;;;;9.17;3.40;;;;;;;;;;5053042;28;20010;-79
2023/12/21 07:12:05;;;;;;;14.63;4.13;;;;;;;;;;5054666;28;20026;-79
2023/12/21 07:14:31;;;;;;;15.07;3.90;;;;;;;;;;5086195;28;20033;-80
2023/12/21 07:16:57;;;;;;;18.90;3.90;;;;;;;;;;5052342;28;20089;-80
2023/12/21 07:19:23;;;;;;;20.07;4.40;;;;;;;;;;5059225;28;20048;-80
2023/12/21 07:21:49;;;;;;;12.63;4.07;;;;;;;;;;5053727;28;20056;-79
2023/12/21 07:24:15;;;;;;;17.43;4.33;;;;;;;;;;5070773;28;20017;-80
2023/12/21 07:26:41;;;;;;;18.70;4.77;;;;;;;;;;5054878;28;20041;-80
2023/12/21 07:29:09;;;;;;;16.90;4.83;;;;;;;;;;5047169;28;20018;-80
2023/12/21 07:31:43;;;;;;;13.27;4.77;;;;;;;;;;5087111;28;20041;-79
2023/12/21 07:34:12;;;;;;;18.57;4.43;;;;;;;;;;5085615;28;20089;-80
2023/12/21 07:36:38;;;;;;;18.23;4.23;;;;;;;;;;5086428;28;20101;-80
2023/12/21 07:39:04;;;;;;;13.67;5.07;;;;;;;;;;5061718;28;20040;-80
2023/12/21 07:41:30;;;;;;;18.80;5.60;;;;;;;;;;5046708;28;20052;-80
2023/12/21 07:43:57;;;;;;;23.23;4.50;;;;;;;;;;5052430;28;20036;-80
2023/12/21 07:46:24;;;;;;;18.30;5.57;;;;;;;;;;5054107;28;20018;-80
2023/12/21 07:48:50;;;;;;;15.33;4.17;;;;;;;;;;5053427;28;20025;-80
2023/12/21 07:51:16;;;;;;;20.13;5.33;;;;;;;;;;5086812;28;20046;-80
2023/12/21 07:53:52;;;;;;;15.20;4.30;;;;;;;;;;5086796;28;20108;-80
2023/12/21 07:56:21;;;;;;;13.40;4.10;;;;;;;;;;5053865;28;20085;-80
2023/12/21 07:58:55;;;;;;;13.37;4.67;;;;;;;;;;5054381;28;20080;-80
2023/12/21 08:01:42;;;;;;;9.73;3.50;;;;;;;;;;5049496;28;20252;-79
2023/12/21 08:04:09;;;;;;;14.23;4.10;;;;;;;;;;5052890;28;20045;-79
2023/12/21 08:06:58;;;;;;;17.47;4.03;;;;;;;;;;5086983;28;20262;-79
2023/12/21 08:10:11;;;;;;;15.10;3.80;;;;;;;;;;5054440;28;20013;-79
2023/12/21 08:12:39;;;;;;;18.73;4.03;;;;;;;;;;5055086;28;20083;-79
2023/12/21 08:15:15;;;;;;;24.67;4.23;;;;;;;;;;5053742;28;20041;-79
2023/12/21 08:17:47;;;;;;;17.03;4.30;;;;;;;;;;5054493;28;20024;-79
2023/12/21 08:20:15;;;;;;;13.17;3.60;;;;;;;;;;5086705;28;20021;-82
2023/12/21 08:22:46;;;;;;;11.63;3.97;;;;;;;;;;5053505;28;20037;-79
2023/12/21 08:25:12;;;;;;;12.13;3.87;;;;;;;;;;5057211;28;20010;-80
2023/12/21 08:27:41;;;;;;;19.57;4.97;;;;;;;;;;5053671;28;20033;-80
2023/12/21 08:30:16;;;;;;;10.57;3.80;;;;;;;;;;5054179;28;20013;-79
2023/12/21 08:33:00;;;;;;;;;;;;;;;;;;;;;
2023/12/21 08:35:28;;;;;;;10.97;2.83;;;;;;;;;;5058414;28;20064;-79
2023/12/21 08:37:56;;;;;;;16.00;3.07;;;;;;;;;;5065967;28;20025;-80
2023/12/21 08:40:22;;;;;;;10.27;2.47;;;;;;;;;;5089895;28;20041;-79
2023/12/21 08:42:51;;;;;;;10.47;2.50;;;;;;;;;;5053425;28;20029;-79
2023/12/21 08:45:21;;;;;;;9.87;3.00;;;;;;;;;;5055109;28;20025;-79
2023/12/21 08:47:47;;;;;;;8.17;3.00;;;;;;;;;;5038908;28;20016;-80
2023/12/21 08:50:13;;;;;;;10.33;2.30;;;;;;;;;;5055749;28;20088;-79
2023/12/21 08:52:41;;;;;;;14.70;3.20;;;;;;;;;;5048503;28;20038;-79
2023/12/21 08:55:08;;;;;;;19.20;2.77;;;;;;;;;;5053564;28;20010;-81
2023/12/21 08:57:37;;;;;;;9.10;1.97;;;;;;;;;;5061816;28;20017;-80
2023/12/21 09:00:05;;;;;;;11.10;2.77;;;;;;;;;;5071940;28;20040;-81
2023/12/21 09:02:34;;;;;;;9.77;2.43;;;;;;;;;;5054239;28;20095;-81
2023/12/21 09:05:08;;;;;;;8.73;2.70;;;;;;;;;;5071487;28;20021;-81
2023/12/21 09:07:36;;;;;;;7.50;2.03;;;;;;;;;;5053904;28;20029;-80
2023/12/21 09:10:05;;;;;;;14.03;3.87;;;;;;;;;;5064419;28;20037;-81
2023/12/21 09:12:32;;;;;;;9.87;3.37;;;;;;;;;;5055849;28;20029;-80
2023/12/21 09:15:00;;;;;;;5.97;2.87;;;;;;;;;;5054858;28;20077;-81
2023/12/21 09:17:26;;;;;;;16.33;3.40;;;;;;;;;;5053317;28;20021;-79
2023/12/21 09:19:52;;;;;;;9.30;3.63;;;;;;;;;;5055512;28;20041;-80
2023/12/21 09:22:21;;;;;;;14.07;3.60;;;;;;;;;;5055446;28;20047;-80
2023/12/21 09:24:49;;;;;;;16.40;3.83;;;;;;;;;;5053160;28;20006;-79
2023/12/21 09:27:17;;;;;;;15.13;3.07;;;;;;;;;;5053185;28;20052;-81
2023/12/21 09:29:46;;;;;;;9.20;3.30;;;;;;;;;;5050534;28;20005;-79
2023/12/21 09:32:28;;;;;;;11.33;3.37;;;;;;;;;;5068942;28;20526;-80
2023/12/21 09:35:01;;;;;;;7.35;3.03;;;;;;;;;;5070973;28;20057;-80
2023/12/21 09:37:35;;;;;;;13.73;3.20;;;;;;;;;;5071495;28;20045;-80
2023/12/21 09:40:05;;;;;;;8.43;3.70;;;;;;;;;;5055013;28;20068;-81
2023/12/21 09:42:41;;;;;;;13.47;3.73;;;;;;;;;;5053711;28;20021;-80
2023/12/21 09:45:10;;;;;;;10.93;4.00;;;;;;;;;;5070302;28;20028;-80
2023/12/21 09:48:13;;;;;;;12.77;3.10;;;;;;;;;;5052643;28;20014;-79
2023/12/21 09:50:46;;;;;;;11.47;3.13;;;;;;;;;;5054911;28;20031;-80
2023/12/21 09:53:22;;;;;;;4.63;2.30;;;;;;;;;;5063574;28;20046;-80
2023/12/21 09:55:54;;;;;;;10.57;3.60;;;;;;;;;;5063105;28;20048;-81
2023/12/21 09:58:34;;;;;;;6.07;3.20;;;;;;;;;;5065992;28;20033;-81
2023/12/21 10:01:04;;;;;;;18.27;3.40;;;;;;;;;;5071592;28;20033;-80
2023/12/21 10:03:40;;;;;;;7.40;3.23;;;;;;;;;;5069014;28;20029;-80
2023/12/21 10:06:11;;;;;;;7.50;2.57;;;;;;;;;;5052549;28;20110;-80
2023/12/21 10:08:37;;;;;;;11.80;2.57;;;;;;;;;;5052733;28;20025;-80
2023/12/21 10:11:10;;;;;;;4.73;2.40;;;;;;;;;;5053913;28;20013;-81
2023/12/21 10:13:47;;;;;;;8.73;2.72;;;;;;;;;;5062239;28;20089;-81
2023/12/21 10:16:16;;;;;;;5.57;2.07;;;;;;;;;;5054215;28;20098;-80
2023/12/21 10:18:51;;;;;;;6.63;2.30;;;;;;;;;;5053104;28;20029;-79
2023/12/21 10:21:24;;;;;;;4.50;1.70;;;;;;;;;;5069411;28;20017;-80
2023/12/21 10:23:52;;;;;;;6.63;2.40;;;;;;;;;;5052482;28;20032;-79
2023/12/21 10:26:20;;;;;;;4.27;2.20;;;;;;;;;;5062705;28;20048;-81
2023/12/21 10:28:54;;;;;;;3.50;1.83;;;;;;;;;;5086075;28;20025;-80
2023/12/21 10:31:21;;;;;;;3.10;1.77;;;;;;;;;;5054020;28;20025;-81
2023/12/21 10:33:52;;;;;;;3.80;1.60;;;;;;;;;;5068480;28;20049;-81
2023/12/21 10:36:32;;;;;;;;;;;;;;;;;;;;;
2023/12/21 10:39:06;;;;;;;3.77;1.27;;;;;;;;;;5053482;28;20025;-81
2023/12/21 10:41:32;;;;;;;6.33;1.53;;;;;;;;;;5053975;28;20049;-81
2023/12/21 10:43:59;;;;;;;6.97;1.30;;;;;;;;;;5049582;28;20056;-80
2023/12/21 10:46:31;;;;;;;2.97;1.47;;;;;;;;;;5063606;28;20102;-79
2023/12/21 10:49:06;;;;;;;4.70;1.90;;;;;;;;;;5059331;28;20029;-80
2023/12/21 10:51:39;;;;;;;3.13;1.87;;;;;;;;;;5055563;28;20021;-78
2023/12/21 10:54:12;;;;;;;5.70;2.03;;;9.60;99.90;;;;;;5059079;28;20049;-80
2023/12/21 10:56:43;;;;;;;3.97;1.73;;;;;;;;;;5048223;28;20010;-82
2023/12/21 10:59:10;;;;;;;10.93;3.90;;;;;;;;;;5059206;28;20072;-79
2023/12/21 11:01:42;;;;;;;11.33;2.27;;;;;;;;;;5089894;28;20021;-80
2023/12/21 11:04:16;;;;;;;6.20;2.72;;;;;;;;;;5092151;28;20033;-84
2023/12/21 11:06:46;;;;;;;9.73;2.80;;;;;;;;;;5058700;28;20034;-81
2023/12/21 11:09:18;;;;;;;6.03;3.07;;;;;;;;;;5059189;28;20006;-80
2023/12/21 11:11:45;;;;;;;15.43;4.27;;;;;;;;;;5058590;28;20029;-80
2023/12/21 11:14:11;;;;;;;6.53;4.17;;;;;;;;;;5058947;28;20033;-79
2023/12/21 11:16:50;;;;;;;10.47;4.77;;;;;;;;;;5088506;28;20037;-81
2023/12/21 11:19:29;;;;;;;8.97;3.50;;;;;;;;;;5057835;28;20017;-80
2023/12/21 11:22:03;;;;;;;8.70;4.30;;;;;;;;;;5066911;28;20018;-81
2023/12/21 11:24:29;;;;;;;9.57;5.13;;;;;;;;;;5058013;28;20014;-81
2023/12/21 11:26:57;;;;;;;10.13;5.20;;;;;;;;;;5091897;28;20017;-82
2023/12/21 11:29:27;;;;;;;13.43;5.90;;;;;;;;;;5058561;28;20044;-82
2023/12/21 11:31:56;;;;;;;9.87;6.40;;;;;;;;;;5059169;28;20012;-81
2023/12/21 11:34:58;;;;;;;16.63;6.90;;;;;;;;;;5057318;28;20019;-80
2023/12/21 11:37:24;;;;;;;11.17;5.40;;;;;;;;;;5037900;28;20042;-82
2023/12/21 11:40:02;;;;;;;16.20;5.30;;;;;;;;;;5072198;28;20073;-82
2023/12/21 11:43:06;;;;;;;;;;;;;;;;;;;;;
2023/12/21 11:45:51;;;;;;;15.35;6.32;;;;;;;;;;5054299;28;20009;-82
2023/12/21 11:48:20;;;;;;;16.53;5.73;;;;;;;;;;5065676;28;20017;-82
2023/12/21 11:50:46;;;;;;;13.97;5.57;;;;;;;;;;5054002;28;20010;-82
2023/12/21 11:53:13;;;;;;;17.20;7.03;;;;;;;;;;5057667;28;20049;-81
2023/12/21 11:55:58;;;;;;;10.80;5.47;;;;;;;;;;5056624;28;20021;-81
2023/12/21 11:58:49;;;;;;;;;;;;;;;;;;;;;
2023/12/21 12:01:42;;;;;;;19.60;5.50;;;;;;;;;;5051162;28;20017;-81
2023/12/21 12:04:12;;;;;;;8.43;5.53;;;;;;;;;;5073136;28;20130;-81
2023/12/21 12:06:44;;;;;;;14.50;4.70;;;;;;;;;;5055516;28;20044;-82
2023/12/21 12:09:10;;;;;;;17.15;4.05;;;;;;;;;;5056256;28;20020;-82
2023/12/21 12:11:42;;;;;;;12.87;4.80;;;;;;;;;;5052645;28;20934;-81
2023/12/21 12:14:15;;;;;;;13.30;4.83;;;;;;;;;;5058260;28;20054;-81
2023/12/21 12:16:49;;;;;;;14.20;4.67;;;;;;;;;;5089984;28;20060;-82
2023/12/21 12:19:15;;;;;;;9.70;5.03;;;;;;;;;;5050865;28;20022;-80
2023/12/21 12:21:57;;;;;;;;;;;;;;;;;;;;;
2023/12/21 12:24:26;;;;;;;12.27;3.60;;;;;;;;;;5052326;28;19940;-80
2023/12/21 12:27:05;;;;;;;10.43;3.40;;;;;;;;;;5052028;28;20037;-80
2023/12/21 12:29:39;;;;;;;12.47;3.47;;;;;;;;;;5054288;28;20042;-81
2023/12/21 12:32:14;;;;;;;7.53;3.77;;;;;;;;;;5069695;28;20034;-81
2023/12/21 12:34:46;;;;;;;5.10;2.77;;;;;;;;;;5051828;28;20025;-81
2023/12/21 12:37:15;;;;;;;7.00;3.00;;;;;;;;;;5051649;28;20029;-80
2023/12/21 12:39:48;;;;;;;7.43;2.93;;;;;;;;;;5066983;28;20061;-80
2023/12/21 12:42:17;;;;;;;4.63;2.33;;;;;;;;;;5053653;28;20010;-81
2023/12/21 12:44:54;;;;;;;;;;;;;;;;;;;;;
2023/12/21 12:47:38;;;;;;;4.73;2.33;;;;;;;;;;5051174;28;20041;-81
2023/12/21 12:50:06;;;;;;;4.73;2.80;;;;;;;;;;5053016;28;20026;-81
2023/12/21 12:52:41;;;;;;;7.00;2.47;;;;;;;;;;5068384;28;20034;-80
2023/12/21 12:55:11;;;;;;;5.70;2.80;;;;;;;;;;5069378;28;20065;-80
2023/12/21 12:57:39;;;;;;;4.67;2.43;;;;;;;;;;5069471;28;20055;-79
2023/12/21 13:00:07;;;;;;;3.50;2.13;;;;;;;;;;5053809;28;20017;-79
2023/12/21 13:02:42;;;;;;;7.00;2.80;;;;;;;;;;5086110;28;20021;-82
2023/12/21 13:05:18;;;;;;;2.67;1.70;;;;;;;;;;5069213;28;20010;-81
2023/12/21 13:07:44;;;;;;;4.07;1.70;;;;;;;;;;5050993;28;20033;-81
2023/12/21 13:10:15;;;;;;;2.30;1.80;;;;;;;;;;5067728;28;20033;-81
2023/12/21 13:12:51;;;;;;;1.70;1.10;;;;;;;;;;5068363;28;20076;-81
2023/12/21 13:15:38;;;;;;;6.77;1.33;;;;;;;;;;5084175;28;20048;-79
2023/12/21 13:18:07;;;;;;;3.70;1.10;;;;;;;;;;5051260;28;20029;-82
2023/12/21 13:20:51;;;;;;;2.60;1.10;;;;;;;;;;5059177;28;20056;-81
2023/12/21 13:26:25;;;;;;;3.20;1.13;;;;;;;;;;5053613;28;20026;-79
2023/12/21 13:29:18;;;;;;;3.77;1.10;;;;;;;;;;5072605;28;20032;-80
2023/12/21 13:31:47;;;;;;;7.07;1.50;;;;;;;;;;5072395;28;20037;-78
2023/12/21 13:34:17;;;;;;;2.00;0.93;;;;;;;;;;5049807;28;20041;-80
2023/12/21 13:36:53;;;;;;;4.37;1.50;;;;;;;;;;5072049;28;20017;-80
2023/12/21 13:39:21;;;;;;;2.87;1.13;;;;;;;;;;5062488;28;20017;-78
2023/12/21 13:41:47;;;;;;;9.37;1.70;;;;;;;;;;5048933;28;20044;-79
2023/12/21 13:44:14;;;;;;;6.53;2.50;;;;;;;;;;5081324;28;20044;-80
2023/12/21 13:46:40;;;;;;;4.10;1.57;;;;;;;;;;5048876;28;20053;-80
2023/12/21 13:49:06;;;;;;;6.47;1.90;;;;;;;;;;5077671;28;20037;-81
2023/12/21 13:51:34;;;;;;;3.30;1.90;;;;;;;;;;5048215;28;20902;-80
2023/12/21 13:54:00;;;;;;;2.73;1.73;;;;;;;;;;5084248;28;20021;-80
2023/12/21 13:56:27;;;;;;;9.23;2.03;;;;;;;;;;5054336;28;20052;-79
2023/12/21 13:58:53;;;;;;;7.40;1.77;;;;;;;;;;5087644;28;20033;-81
2023/12/21 14:01:22;;;;;;;2.77;1.50;;;;;;;;;;5055703;28;20053;-80
2023/12/21 14:03:49;;;;;;;9.23;2.37;;;;;;;;;;5064919;28;20028;-80
2023/12/21 14:06:15;;;;;;;8.77;1.80;;;;;;;;;;5089279;28;20108;-80
2023/12/21 14:08:41;;;;;;;6.20;1.80;;;;;;;;;;5089412;28;20017;-80
2023/12/21 14:11:10;;;;;;;6.57;1.30;;;;;;;;;;5057086;28;20017;-80
2023/12/21 14:13:41;;;;;;;2.63;1.60;;;;;;;;;;5060901;28;20032;-78
2023/12/21 14:16:10;;;;;;;4.67;2.10;;;;;;;;;;5063111;28;20059;-80
2023/12/21 14:18:38;;;;;;;2.40;1.50;;;;;;;;;;5088645;28;20033;-80
2023/12/21 14:21:04;;;;;;;4.80;1.40;;;;;;;;;;5050231;28;20032;-80
2023/12/21 14:23:32;;;;;;;3.97;1.47;;;;;;;;;;5056935;28;20369;-80
2023/12/21 14:25:59;;;;;;;8.30;1.43;;;;;;;;;;5080391;28;20045;-80
2023/12/21 14:28:26;;;;;;;4.60;1.83;;;;;;;;;;5055834;28;20021;-79
2023/12/21 14:30:52;;;;;;;4.17;1.93;;;;;;;;;;5038703;28;20088;-80
2023/12/21 14:33:18;;;;;;;7.30;1.97;;;;;;;;;;5076433;28;20044;-79
2023/12/21 14:35:44;;;;;;;4.07;1.93;;;;;;;;;;5042945;28;20030;-79
2023/12/21 14:38:10;;;;;;;4.20;2.10;;;;;;;;;;5039973;28;20044;-79
2023/12/21 14:40:37;;;;;;;10.10;2.27;;;;;;;;;;5075223;28;20060;-79
2023/12/21 14:43:06;;;;;;;5.43;2.03;;;;;;;;;;5048145;28;20037;-80
2023/12/21 14:45:32;;;;;;;8.17;2.20;;;;;;;;;;5059376;28;20045;-81
2023/12/21 14:47:58;;;;;;;8.17;2.37;;;;;;;;;;5076358;28;20072;-82
2023/12/21 14:50:26;;;;;;;11.73;2.27;;;;;;;;;;5057082;28;20101;-81
2023/12/21 14:52:53;;;;;;;9.57;2.50;;;;;;;;;;5052919;28;20033;-79
2023/12/21 14:55:21;;;;;;;3.73;1.63;;;;;;;;;;5056751;28;20042;-81
2023/12/21 14:57:53;;;;;;;2.93;1.63;;;;;;;;;;5057065;28;20017;-81
2023/12/21 15:00:19;;;;;;;6.07;1.73;;;;;;;;;;5068216;28;20046;-81
2023/12/21 15:02:45;;;;;;;5.20;1.60;;;;;;;;;;5049223;28;20930;-79
2023/12/21 15:05:13;;;;;;;10.90;1.77;;;;;;;;;;5065023;28;20040;-80
2023/12/21 15:07:40;;;;;;;8.73;1.50;;;;;;;;;;5046691;28;20013;-78